Time;durP1;ratioP1;P1;durP2;ratioP2;P2;SDS_P1;SDS_P2;PMS_P1;PMS_P2;Temp;Humidity;BMP_temperature;BMP_pressure;BME280_temperature;BME280_humidity;BME280_pressure;Samples;Min_cycle;Max_cycle;Signal;HPM_P1;HPM_P2
2023/07/10 00:01:25;;;;;;;2.65;1.73;;;;;;;;;;5074584;28;20199;-39
2023/07/10 00:03:53;;;;;;;4.10;1.73;;;;;;;;;;5074649;28;20559;-39
2023/07/10 00:06:21;;;;;;;2.35;1.48;;;;;;;;;;5074704;28;20216;-41
2023/07/10 00:08:48;;;;;;;2.15;1.40;;;;;;;;;;5074692;28;20568;-39
2023/07/10 00:11:17;;;;;;;2.03;1.50;;;;;;;;;;5074511;28;20206;-40
2023/07/10 00:13:45;;;;;;;2.42;1.77;;;;;;;;;;5074354;28;20206;-40
2023/07/10 00:16:15;;;;;;;1.83;1.60;;;;;;;;;;5074470;28;20545;-39
2023/07/10 00:18:42;;;;;;;1.88;1.42;;;;;;;;;;5073485;28;20200;-39
2023/07/10 00:21:10;;;;;;;2.58;1.60;;;;;;;;;;5074118;28;20668;-39
2023/07/10 00:23:37;;;;;;;4.90;1.58;;;;;;;;;;5074328;28;20219;-39
2023/07/10 00:26:25;;;;;;;2.55;1.30;;;;;;;;;;5074332;28;20235;-39
2023/07/10 00:28:55;;;;;;;2.10;1.20;;;;;;;;;;5074273;28;20208;-40
2023/07/10 00:31:24;;;;;;;1.95;1.23;;;;;;;;;;5072972;28;20652;-39
2023/07/10 00:33:53;;;;;;;1.88;1.48;;;;;;;;;;5106561;28;20219;-40
2023/07/10 00:36:32;;;;;;;3.63;1.75;;;;;;;;;;5072930;28;20203;-39
2023/07/10 00:39:19;;;;;;;1.98;1.48;;;;;;;;;;5072947;28;20206;-40
2023/07/10 00:42:14;;;;;;;2.92;1.70;;;;;;;;;;5073828;28;20195;-40
2023/07/10 00:44:51;;;;;;;3.40;1.73;;;;;;;;;;5055357;28;20214;-39
2023/07/10 00:47:27;;;;;;;2.25;1.50;;;;;;;;;;5073857;28;20198;-40
2023/07/10 00:50:02;;;;;;;2.63;1.70;;;;;;;;;;5089961;28;20256;-40
2023/07/10 00:52:44;;;;;;;3.13;1.45;;;;;;;;;;5074239;28;20183;-39
2023/07/10 00:55:37;;;;;;;1.55;1.45;;;;;;;;;;5124774;27;20206;-39
2023/07/10 00:58:24;;;;;;;3.33;1.80;;;;;;;;;;5093073;28;20218;-40
2023/07/10 01:01:13;;;;;;;2.15;1.70;;;;;;;;;;5094113;28;20552;-39
2023/07/10 01:03:43;;;;;;;3.05;1.75;;;;;;;;;;5093778;28;20685;-39
2023/07/10 01:06:31;;;;;;;3.22;1.70;;;;;;;;;;5093598;28;20679;-39
2023/07/10 01:09:05;;;;;;;2.05;1.58;;;;;;;;;;5092338;28;20201;-39
2023/07/10 01:11:37;;;;;;;2.22;1.52;;;;;;;;;;5076295;28;20289;-39
2023/07/10 01:14:05;;;;;;;1.60;1.33;;;;;;;;;;5092348;28;20202;-39
2023/07/10 01:16:33;;;;;;;2.40;1.40;;;;;;;;;;5092466;28;20194;-39
2023/07/10 01:19:01;;;;;;;2.58;1.30;;;;;;;;;;5092488;28;20195;-39
2023/07/10 01:21:31;;;;;;;2.42;1.60;;;;;;;;;;5092420;28;20214;-39
2023/07/10 01:24:01;;;;;;;4.55;1.60;;;;;;;;;;5093770;28;20225;-39
2023/07/10 01:26:29;;;;;;;2.00;1.50;;;;;;;;;;5075683;28;20284;-39
2023/07/10 01:28:58;;;;;;;4.35;1.48;;;;;;;;;;5078855;28;20205;-40
2023/07/10 01:31:26;;;;;;;1.98;1.35;;;;;;;;;;5100681;28;20285;-39
2023/07/10 01:34:00;;;;;;;1.80;1.38;;;;;;;;;;5098897;28;20247;-40
2023/07/10 01:36:31;;;;;;;1.80;1.30;;;;;;;;;;5099006;28;20651;-39
2023/07/10 01:39:02;;;;;;;2.55;1.50;;;;;;;;;;5082092;28;20252;-39
2023/07/10 01:41:38;;;;;;;2.90;1.30;;;;;;;;;;5098752;28;20728;-39
2023/07/10 01:44:32;;;;;;;3.65;1.55;;;;;;;;;;5100199;28;20202;-40
2023/07/10 01:47:01;;;;;;;3.17;1.50;;;;;;;;;;5095557;28;20199;-40
2023/07/10 01:49:36;;;;;;;3.40;1.48;;;;;;;;;;5099958;28;20202;-39
2023/07/10 01:52:05;;;;;;;1.85;1.20;;;;;;;;;;5100077;28;20188;-40
2023/07/10 01:54:32;;;;;;;2.05;1.45;;;;;;;;;;5099628;28;20222;-39
2023/07/10 01:56:59;;;;;;;3.55;1.50;;;;;;;;;;5100050;28;20213;-40
2023/07/10 01:59:27;;;;;;;4.90;1.42;;;;;;;;;;5098491;28;20203;-40
2023/07/10 02:01:55;;;;;;;2.63;1.42;;;;;;;;;;5099481;28;20207;-40
2023/07/10 02:04:23;;;;;;;3.35;1.55;;;;;;;;;;5098677;28;20218;-40
2023/07/10 02:06:50;;;;;;;1.95;1.52;;;;;;;;;;5098464;28;20198;-39
2023/07/10 02:09:17;;;;;;;2.40;1.70;;;;;;;;;;5099492;28;20203;-39
2023/07/10 02:11:44;;;;;;;2.15;1.50;;;;;;;;;;5098443;28;20202;-40
2023/07/10 02:14:11;;;;;;;2.95;1.58;;;;;;;;;;5099499;28;20597;-40
2023/07/10 02:16:39;;;;;;;1.95;1.52;;;;;;;;;;5099496;28;20663;-39
2023/07/10 02:19:07;;;;;;;4.38;1.80;;;;;;;;;;5099403;28;20199;-39
2023/07/10 02:21:35;;;;;;;2.00;1.30;;;;;;;;;;5099357;28;20203;-40
2023/07/10 02:24:02;;;;;;;1.90;1.52;;;;;;;;;;5099720;28;20203;-39
2023/07/10 02:26:29;;;;;;;1.90;1.13;;;;;;;;;;5099412;28;20230;-39
2023/07/10 02:28:57;;;;;;;1.92;1.50;;;;;;;;;;5099514;28;20203;-39
2023/07/10 02:31:26;;;;;;;3.42;1.48;;;;;;;;;;5099600;28;20230;-40
2023/07/10 02:33:54;;;;;;;2.95;1.40;;;;;;;;;;5081421;28;20686;-40
2023/07/10 02:36:22;;;;;;;6.40;1.60;;;;;;;;;;5098339;28;20249;-39
2023/07/10 02:38:49;;;;;;;2.95;1.45;;;;;;;;;;5098468;28;20202;-39
2023/07/10 02:41:16;;;;;;;2.60;1.27;;;;;;;;;;5094571;28;20202;-39
2023/07/10 02:43:44;;;;;;;2.88;1.67;;;;;;;;;;5096226;28;20214;-40
2023/07/10 02:46:11;;;;;;;5.00;1.98;;;;;;;;;;5096157;28;20290;-39
2023/07/10 02:48:38;;;;;;;2.65;1.52;;;;;;;;;;5096230;28;20659;-39
2023/07/10 02:51:06;;;;;;;1.90;1.50;;;;;;;;;;5094959;28;20667;-39
2023/07/10 02:53:33;;;;;;;1.98;1.52;;;;;;;;;;5095982;28;20659;-38
2023/07/10 02:56:01;;;;;;;4.35;1.92;;;;;;;;;;5095945;28;20222;-39
2023/07/10 02:58:29;;;;;;;2.03;1.33;;;;;;;;;;5096281;28;20255;-39
2023/07/10 03:00:57;;;;;;;1.98;1.33;;;;;;;;;;5095201;28;20289;-39
2023/07/10 03:03:25;;;;;;;2.08;1.55;;;;;;;;;;5094922;28;20222;-39
2023/07/10 03:05:57;;;;;;;3.17;1.60;;;;;;;;;;5095854;28;20663;-38
2023/07/10 03:08:24;;;;;;;1.88;1.45;;;;;;;;;;5096007;28;20616;-39
2023/07/10 03:11:06;;;;;;;3.28;1.63;;;;;;;;;;5095796;28;20604;-40
2023/07/10 03:13:33;;;;;;;5.20;1.83;;;;;;;;;;5096106;28;20230;-39
2023/07/10 03:16:07;;;;;;;3.33;1.50;;;;;;;;;;5094318;28;20233;-39
2023/07/10 03:18:36;;;;;;;4.15;1.77;;;;;;;;;;5095851;28;20194;-39
2023/07/10 03:21:05;;;;;;;3.10;1.60;;;;;;;;;;5094541;28;20211;-40
2023/07/10 03:23:33;;;;;;;2.25;1.52;;;;;;;;;;5096062;28;20199;-39
2023/07/10 03:26:00;;;;;;;2.90;1.83;;;;;;;;;;5095618;28;20229;-39
2023/07/10 03:28:30;;;;;;;4.47;1.75;;;;;;;;;;5094353;28;20256;-39
2023/07/10 03:30:58;;;;;;;2.33;1.83;;;;;;;;;;5095707;28;20255;-38
2023/07/10 03:33:26;;;;;;;4.97;1.65;;;;;;;;;;5095718;28;20203;-39
2023/07/10 03:36:05;;;;;;;3.22;1.90;;;;;;;;;;5095454;28;20233;-39
2023/07/10 03:38:34;;;;;;;2.88;1.80;;;;;;;;;;5095341;28;20202;-39
2023/07/10 03:41:01;;;;;;;2.83;2.08;;;;;;;;;;5090277;28;20198;-39
2023/07/10 03:43:29;;;;;;;3.97;1.67;;;;;;;;;;5083885;28;20203;-39
2023/07/10 03:45:56;;;;;;;3.20;1.90;;;;;;;;;;5095298;28;20209;-39
2023/07/10 03:48:24;;;;;;;3.33;1.63;;;;;;;;;;5094984;28;20559;-40
2023/07/10 03:50:52;;;;;;;2.30;1.60;;;;;;;;;;5094976;28;20198;-39
2023/07/10 03:53:19;;;;;;;2.35;1.80;;;;;;;;;;5095041;28;20206;-39
2023/07/10 03:55:53;;;;;;;4.53;1.88;;;;;;;;;;5094730;28;20223;-40
2023/07/10 03:58:34;;;;;;;2.17;1.70;;;;;;;;;;5093834;28;20198;-41
2023/07/10 04:01:02;;;;;;;4.13;1.95;;;;;;;;;;5094918;28;20568;-39
2023/07/10 04:03:31;;;;;;;2.92;1.80;;;;;;;;;;5094956;28;20199;-39
2023/07/10 04:05:59;;;;;;;2.33;1.80;;;;;;;;;;5094637;28;20202;-39
2023/07/10 04:08:35;;;;;;;5.10;2.20;;;;;;;;;;5094960;28;20206;-39
2023/07/10 04:11:13;;;;;;;1.75;1.27;;;;;;;;;;5092086;28;20217;-40
2023/07/10 04:13:41;;;;;;;2.95;1.92;;;;;;;;;;5082285;28;20683;-39
2023/07/10 04:16:13;;;;;;;3.40;2.05;;;;;;;;;;5089228;28;20622;-40
2023/07/10 04:18:41;;;;;;;3.38;2.00;;;;;;;;;;5073669;28;20231;-39
2023/07/10 04:21:18;;;;;;;3.30;1.88;;;;;;;;;;5085188;28;20215;-41
2023/07/10 04:23:45;;;;;;;3.97;2.03;;;;;;;;;;5090995;28;20222;-39
2023/07/10 04:26:24;;;;;;;3.45;1.60;;;;;;;;;;5092134;28;20239;-39
2023/07/10 04:28:54;;;;;;;3.10;2.13;;;;;;;;;;5093977;28;20231;-39
2023/07/10 04:31:22;;;;;;;2.70;1.75;;;;;;;;;;5093801;28;20223;-39
2023/07/10 04:33:51;;;;;;;3.35;2.08;;;;;;;;;;5093714;28;20233;-39
2023/07/10 04:36:18;;;;;;;3.15;2.33;;;;;;;;;;5093269;28;20802;-39
2023/07/10 04:38:46;;;;;;;3.83;2.60;;;;;;;;;;5093700;28;20218;-38
2023/07/10 04:41:15;;;;;;;3.47;2.28;;;;;;;;;;5092658;28;20230;-39
2023/07/10 04:43:43;;;;;;;3.55;2.40;;;;;;;;;;5093624;28;20222;-40
2023/07/10 04:46:14;;;;;;;9.50;6.60;;;;;;;;;;5093462;28;20219;-39
2023/07/10 04:48:42;;;;;;;4.60;3.10;;;;;;;;;;5090824;28;20223;-39
2023/07/10 04:51:11;;;;;;;3.15;2.28;;;;;;;;;;5071336;28;20215;-40
2023/07/10 04:53:39;;;;;;;2.70;1.90;;;;;;;;;;5072837;28;20219;-39
2023/07/10 04:56:08;;;;;;;2.38;1.75;;;;;;;;;;5072447;28;20238;-37
2023/07/10 04:58:56;;;;;;;3.15;2.28;;;;;;;;;;5072845;28;20250;-38
2023/07/10 05:01:28;;;;;;;3.67;2.15;;;;;;;;;;5072976;28;20646;-37
2023/07/10 05:03:56;;;;;;;3.13;2.13;;;;;;;;;;5072623;28;20233;-39
2023/07/10 05:06:23;;;;;;;2.50;1.70;;;;;;;;;;5072637;28;20227;-38
2023/07/10 05:08:53;;;;;;;7.53;2.05;;;;;;;;;;5075892;28;20562;-37
2023/07/10 05:11:21;;;;;;;2.03;1.50;;;;;;;;;;5093789;28;20202;-36
2023/07/10 05:13:49;;;;;;;3.72;1.70;;;;;;;;;;5090728;28;20199;-37
2023/07/10 05:16:16;;;;;;;2.08;1.52;;;;;;;;;;5093473;28;20679;-37
2023/07/10 05:18:43;;;;;;;2.40;1.80;;;;;;;;;;5092411;28;20195;-37
2023/07/10 05:21:10;;;;;;;1.63;1.42;;;;;;;;;;5093957;28;20545;-38
2023/07/10 05:23:38;;;;;;;4.03;1.65;;;;;;;;;;5093676;28;20198;-37
2023/07/10 05:26:11;;;;;;;4.88;1.70;;;;;;;;;;5093401;28;20235;-37
2023/07/10 05:28:39;;;;;;;1.77;1.30;;;;;;;;;;5093540;28;20191;-37
2023/07/10 05:31:07;;;;;;;3.38;1.50;;;;;;;;;;5093359;28;20198;-37
2023/07/10 05:33:36;;;;;;;3.08;1.50;;;;;;;;;;5093442;28;20202;-37
2023/07/10 05:36:06;;;;;;;2.25;1.50;;;;;;;;;;5093617;28;20226;-38
2023/07/10 05:38:34;;;;;;;1.98;1.30;;;;;;;;;;5093890;28;20202;-38
2023/07/10 05:41:02;;;;;;;1.63;1.30;;;;;;;;;;5093459;28;20210;-38
2023/07/10 05:43:31;;;;;;;2.60;1.38;;;;;;;;;;5093632;28;20563;-38
2023/07/10 05:45:58;;;;;;;3.55;1.35;;;;;;;;;;5093176;28;20659;-37
2023/07/10 05:48:26;;;;;;;2.17;1.20;;;;;;;;;;5093042;28;20754;-38
2023/07/10 05:50:53;;;;;;;2.20;1.23;;;;;;;;;;5093179;28;20648;-38
2023/07/10 05:53:21;;;;;;;2.22;1.23;;;;;;;;;;5093618;28;20199;-38
2023/07/10 05:55:52;;;;;;;1.30;1.13;;;;;;;;;;5093315;28;20249;-38
2023/07/10 05:58:21;;;;;;;7.45;1.58;;;;;;;;;;5093215;28;20733;-38
2023/07/10 06:00:50;;;;;;;2.13;1.40;;;;;;;;;;5093093;28;20233;-38
2023/07/10 06:03:18;;;;;;;3.70;1.27;;;;;;;;;;5093197;28;20211;-41
2023/07/10 06:05:53;;;;;;;1.98;1.50;;;;;;;;;;5092978;28;20294;-38
2023/07/10 06:08:21;;;;;;;1.52;1.02;;;;;;;;;;5093215;28;20205;-39
2023/07/10 06:10:47;;;;;;;1.27;1.10;;;;;;;;;;5093151;28;20252;-38
2023/07/10 06:13:15;;;;;;;1.25;1.02;;;;;;;;;;5092957;28;20214;-38
2023/07/10 06:15:44;;;;;;;2.33;1.40;;;;;;;;;;5094206;28;20226;-38
2023/07/10 06:18:13;;;;;;;1.67;1.20;;;;;;;;;;5097139;28;20202;-38
2023/07/10 06:20:40;;;;;;;2.35;1.23;;;;;;;;;;5095865;28;20198;-37
2023/07/10 06:23:07;;;;;;;1.60;1.08;;;;;;;;;;5096760;28;20720;-39
2023/07/10 06:25:34;;;;;;;1.95;1.20;;;;;;;;;;5096462;28;20587;-38
2023/07/10 06:28:01;;;;;;;2.63;1.10;;;;;;;;;;5091180;28;20214;-39
2023/07/10 06:30:28;;;;;;;1.13;0.90;;;;;;;;;;5094774;28;20668;-39
2023/07/10 06:32:55;;;;;;;1.70;1.10;;;;;;;;;;5096773;28;20205;-39
2023/07/10 06:35:22;;;;;;;1.92;1.02;;;;;;;;;;5096631;28;20202;-39
2023/07/10 06:37:50;;;;;;;1.50;1.20;;;;;;;;;;5095622;28;20211;-38
2023/07/10 06:40:17;;;;;;;2.40;1.30;;;;;;;;;;5094984;28;20663;-40
2023/07/10 06:42:44;;;;;;;2.75;1.00;;;;;;;;;;5095462;28;20294;-40
2023/07/10 06:45:15;;;;;;;1.23;0.93;;;;;;;;;;5095427;28;20194;-39
2023/07/10 06:47:44;;;;;;;1.65;0.90;;;;;;;;;;5096303;28;20206;-39
2023/07/10 06:50:13;;;;;;;1.10;0.95;;;;;;;;;;5096187;28;20198;-38
2023/07/10 06:52:42;;;;;;;1.90;1.23;;;;;;;;;;5096459;28;20183;-39
2023/07/10 06:55:15;;;;;;;1.50;0.88;;;;;;;;;;5089857;28;20226;-40
2023/07/10 06:57:43;;;;;;;1.50;1.00;;;;;;;;;;5092842;28;20231;-39
2023/07/10 07:00:16;;;;;;;1.13;0.85;;;;;;;;;;5094676;28;20222;-40
2023/07/10 07:02:44;;;;;;;1.42;0.95;;;;;;;;;;5085958;28;20227;-39
2023/07/10 07:05:11;;;;;;;1.38;1.00;;;;;;;;;;5086737;28;20276;-39
2023/07/10 07:07:39;;;;;;;1.40;0.93;;;;;;;;;;5087190;28;20222;-40
2023/07/10 07:10:12;;;;;;;1.27;0.93;;;;;;;;;;5089307;28;20250;-39
2023/07/10 07:12:41;;;;;;;1.08;0.98;;;;;;;;;;5095696;28;20191;-38
2023/07/10 07:15:10;;;;;;;1.58;0.90;;;;;;;;;;5094745;28;20309;-38
2023/07/10 07:17:37;;;;;;;1.10;0.85;;;;;;;;;;5095495;28;20227;-37
2023/07/10 07:20:06;;;;;;;1.77;0.93;;;;;;;;;;5095765;28;20273;-37
2023/07/10 07:22:33;;;;;;;2.47;0.90;;;;;;;;;;5095653;28;20240;-39
2023/07/10 07:25:01;;;;;;;1.23;0.82;;;;;;;;;;5096016;28;20198;-38
2023/07/10 07:27:31;;;;;;;1.33;0.90;;;;;;;;;;5094205;28;20222;-38
2023/07/10 07:30:05;;;;;;;0.90;0.90;;;;;;;;;;5091600;28;20205;-38
2023/07/10 07:32:32;;;;;;;1.20;0.90;;;;;;;;;;5095227;28;20187;-38
2023/07/10 07:35:00;;;;;;;0.85;0.82;;;;;;;;;;5095065;28;20268;-43
2023/07/10 07:37:27;;;;;;;1.42;0.95;;;;;;;;;;5094954;28;20222;-41
2023/07/10 07:39:56;;;;;;;1.33;0.80;;;;;;;;;;5091946;28;20195;-40
2023/07/10 07:42:23;;;;;;;1.10;0.90;;;;;;;;;;5092200;28;20206;-42
2023/07/10 07:44:51;;;;;;;1.42;0.90;;;;;;;;;;5093463;28;20278;-41
2023/07/10 07:47:19;;;;;;;1.80;1.05;;;;;;;;;;5093723;28;20656;-41
2023/07/10 07:49:46;;;;;;;1.83;1.13;;;;;;;;;;5094598;28;20191;-41
2023/07/10 07:52:13;;;;;;;1.42;0.93;;;;;;;;;;5091803;28;20541;-41
2023/07/10 07:54:40;;;;;;;1.20;1.00;;;;;;;;;;5092936;28;20203;-41
2023/07/10 07:57:08;;;;;;;1.40;1.05;;;;;;;;;;5093687;28;20748;-41
2023/07/10 07:59:35;;;;;;;1.30;1.00;;;;;;;;;;5094968;28;20317;-41
2023/07/10 08:02:03;;;;;;;1.52;1.00;;;;;;;;;;5092694;28;20205;-41
2023/07/10 08:04:30;;;;;;;1.65;1.15;;;;;;;;;;5092814;28;20199;-41
2023/07/10 08:06:58;;;;;;;1.30;0.82;;;;;;;;;;5093483;28;20194;-40
2023/07/10 08:09:25;;;;;;;1.35;0.68;;;;;;;;;;5094123;28;20206;-41
2023/07/10 08:11:52;;;;;;;2.42;1.10;;;;;;;;;;5093904;28;20290;-40
2023/07/10 08:14:19;;;;;;;2.45;1.30;;;;;;;;;;5093116;28;20600;-41
2023/07/10 08:16:47;;;;;;;0.95;0.73;;;;;;;;;;5093607;28;20764;-41
2023/07/10 08:19:14;;;;;;;1.38;0.90;;;;;;;;;;5092766;28;20202;-40
2023/07/10 08:21:42;;;;;;;2.30;1.15;;;;;;;;;;5089439;28;20235;-41
2023/07/10 08:24:09;;;;;;;1.27;0.90;;;;;;;;;;5092644;28;20223;-41
2023/07/10 08:26:36;;;;;;;1.42;1.00;;;;;;;;;;5072441;28;20242;-42
2023/07/10 08:29:29;;;;;;;1.38;1.00;;;;;;;;;;5085433;28;20219;-41
2023/07/10 08:31:58;;;;;;;2.10;0.95;;;;;;;;;;5085373;28;20691;-42
2023/07/10 08:34:27;;;;;;;1.92;0.93;;;;;;;;;;5088972;28;20229;-41
2023/07/10 08:36:55;;;;;;;2.05;0.90;;;;;;;;;;5079312;28;20234;-41
2023/07/10 08:39:23;;;;;;;4.00;1.10;;;;;;;;;;5091283;28;20226;-42
2023/07/10 08:41:54;;;;;;;1.75;1.08;;;;;;;;;;5091638;28;20222;-43
2023/07/10 08:44:33;;;;;;;0.90;0.80;;;;;;;;;;5092192;28;20253;-42
2023/07/10 08:47:14;;;;;;;1.77;1.10;;;;;;;;;;5091273;28;20210;-43
2023/07/10 08:49:53;;;;;;;1.45;1.02;;;;;;;;;;5092639;28;20224;-41
2023/07/10 08:52:35;;;;;;;3.85;0.90;;;;;;;;;;5089294;28;20223;-41
2023/07/10 08:55:02;;;;;;;2.17;0.98;;;;;;;;;;5088957;28;20297;-40
2023/07/10 08:57:35;;;;;;;1.65;1.10;;;;;;;;;;5091086;28;20234;-42
2023/07/10 09:00:11;;;;;;;1.30;1.10;;;;;;;;;;5089805;28;20691;-40
2023/07/10 09:02:48;;;;;;;1.73;1.00;;;;;;;;;;5091574;27;20226;-40
2023/07/10 09:05:21;;;;;;;1.58;0.98;;;;;;;;;;5091679;28;20690;-41
2023/07/10 09:07:49;;;;;;;1.30;1.10;;;;;;;;;;5078276;28;20235;-40
2023/07/10 09:10:38;;;;;;;1.65;1.20;;;;;;;;;;5088476;28;20226;-41
2023/07/10 09:13:13;;;;;;;2.78;1.02;;;;;;;;;;5091546;28;20211;-40
2023/07/10 09:15:45;;;;;;;2.85;1.20;;;;;;;;;;5091783;28;20309;-39
2023/07/10 09:18:26;;;;;;;1.90;1.15;;;;;;;;;;5092581;28;20227;-41
2023/07/10 09:20:56;;;;;;;2.35;1.02;;;;;;;;;;5091281;28;20232;-39
2023/07/10 09:23:28;;;;;;;1.27;1.00;;;;;;;;;;5091083;28;20694;-40
2023/07/10 09:25:57;;;;;;;2.08;0.98;;;;;;;;;;5091421;28;20711;-40
2023/07/10 09:28:25;;;;;;;1.90;0.98;;;;;;;;;;5092483;28;20222;-41
2023/07/10 09:31:08;;;;;;;1.65;1.10;;;;;;;;;;5102174;28;20690;-41
2023/07/10 09:33:44;;;;;;;1.88;1.23;;;;;;;;;;5111500;27;20222;-41
2023/07/10 09:36:16;;;;;;;1.73;1.23;;;;;;;;;;5112072;28;20240;-40
2023/07/10 09:38:45;;;;;;;1.70;1.30;;;;;;;;;;5112666;28;20255;-38
2023/07/10 09:41:17;;;;;;;2.05;1.10;;;;;;;;;;5112623;28;20194;-42
2023/07/10 09:44:13;;;;;;;1.33;1.00;;;;;;;;;;5113220;28;20205;-41
2023/07/10 09:46:40;;;;;;;2.20;0.90;;;;;;;;;;5096768;28;20225;-41
2023/07/10 09:49:16;;;;;;;2.42;1.23;;;;;;;;;;5092643;28;20230;-40
2023/07/10 09:51:59;;;;;;;2.22;1.10;;;;;;;;;;5117489;27;20236;-40
2023/07/10 09:54:37;;;;;;;1.25;1.02;;;;;;;;;;5089472;28;20272;-40
2023/07/10 09:57:12;;;;;;;1.45;0.90;;;;;;;;;;5083949;28;20291;-42
2023/07/10 09:59:47;;;;;;;1.85;0.90;;;;;;;;;;5085745;28;20214;-43
2023/07/10 10:02:38;;;;;;;0.65;0.65;;;;;;;;;;5084103;28;20691;-40
2023/07/10 10:05:11;;;;;;;1.48;1.17;;;;;;;;;;5095404;28;20224;-42
2023/07/10 10:07:41;;;;;;;3.50;1.10;;;;;;;;;;5096177;28;20284;-39
2023/07/10 10:10:31;;;;;;;2.45;0.98;;;;;;;;;;5096336;28;20230;-44
2023/07/10 10:13:19;;;;;;;1.10;0.80;;;;;;;;;;5095147;28;20218;-39
2023/07/10 10:16:03;;;;;;;1.25;0.90;;;;;;;;;;5095873;28;20264;-39
2023/07/10 10:18:48;;;;;;;1.10;0.95;;;;;;;;;;5096122;28;20313;-42
2023/07/10 10:21:19;;;;;;;1.98;1.00;;;;;;;;;;5095867;28;20227;-43
2023/07/10 10:23:51;;;;;;;2.08;1.02;;;;;;;;;;5094682;28;20222;-42
2023/07/10 10:26:31;;;;;;;3.10;1.00;;;;;;;;;;5094540;28;20300;-43
2023/07/10 10:29:42;;;;;;;1.30;0.80;;;;;;;;;;5096091;28;20225;-42
2023/07/10 10:32:23;;;;;;;1.38;1.02;;;;;;;;;;5055064;28;20227;-41
2023/07/10 10:34:59;;;;;;;1.33;1.02;;;;;;;;;;5075359;28;20956;-42
2023/07/10 10:37:48;;;;;;;1.70;1.13;;;;;;;;;;5075366;28;20247;-42
2023/07/10 10:40:39;;;;;;;1.17;0.95;;;;;;;;;;5086292;28;20222;-42
2023/07/10 10:43:31;;;;;;;0.88;0.70;;;;;;;;;;5092974;28;20207;-42
2023/07/10 10:46:36;;;;;;;1.42;1.08;;;;;;;;;;5094719;28;20214;-42
2023/07/10 10:49:19;;;;;;;1.40;0.70;;;;;;;;;;5052428;28;20246;-42
2023/07/10 10:52:01;;;;;;;1.15;0.90;;;;;;;;;;5073608;28;20657;-41
2023/07/10 10:54:35;;;;;;;1.17;0.70;;;;;;;;;;5075051;28;20223;-41
2023/07/10 10:57:19;;;;;;;1.02;0.88;;;;;;;;;;5075180;28;20298;-41
2023/07/10 11:00:16;;;;;;;1.42;0.80;;;;;;;;;;5089984;28;20183;-42
2023/07/10 11:02:58;;;;;;;1.50;0.80;;;;;;;;;;5083427;28;20230;-40
2023/07/10 11:06:03;;;;;;;1.70;0.98;;;;;;;;;;5090342;28;20218;-40
2023/07/10 11:08:40;;;;;;;1.17;0.80;;;;;;;;;;5050811;28;20234;-41
2023/07/10 11:11:22;;;;;;;1.20;0.70;;;;;;;;;;5065000;28;20747;-43
2023/07/10 11:13:49;;;;;;;2.17;0.95;;;;;;;;;;5071443;28;20233;-42
2023/07/10 11:16:17;;;;;;;0.70;0.70;;;;;;;;;;5055073;28;20743;-43
2023/07/10 11:18:45;;;;;;;1.52;0.95;;;;;;;;;;5059163;28;20239;-41
2023/07/10 11:21:12;;;;;;;1.25;0.80;;;;;;;;;;5070792;28;20223;-43
2023/07/10 11:23:39;;;;;;;1.67;1.00;;;;;;;;;;5071432;28;20677;-41
2023/07/10 11:26:19;;;;;;;1.75;0.88;;;;;;;;;;5072026;28;20238;-43
2023/07/10 11:29:01;;;;;;;3.00;0.85;;;;;;;;;;5072115;28;20722;-42
2023/07/10 11:31:37;;;;;;;1.30;0.90;;;;;;;;;;5056195;28;20271;-42
2023/07/10 11:34:04;;;;;;;1.73;1.00;;;;;;;;;;5055240;28;20239;-42
2023/07/10 11:36:44;;;;;;;1.05;0.75;;;;;;;;;;5071775;28;20786;-42
2023/07/10 11:39:11;;;;;;;1.02;0.70;;;;;;;;;;5088244;28;20227;-42
2023/07/10 11:41:59;;;;;;;1.23;0.70;;;;;;;;;;5072231;28;20223;-42
2023/07/10 11:44:28;;;;;;;2.83;0.80;;;;;;;;;;5072661;28;20264;-40
2023/07/10 11:47:01;;;;;;;1.50;0.90;;;;;;;;;;5093281;28;20214;-41
2023/07/10 11:49:34;;;;;;;1.27;0.98;;;;;;;;;;5084797;28;20219;-41
2023/07/10 11:52:08;;;;;;;1.88;0.90;;;;;;;;;;5094033;28;20230;-41
2023/07/10 11:54:36;;;;;;;5.93;1.05;;;;;;;;;;5093997;28;20227;-40
2023/07/10 11:57:06;;;;;;;1.27;1.02;;;;;;;;;;5093606;28;20276;-41
2023/07/10 12:00:01;;;;;;;1.23;0.80;;;;;;;;;;5094257;28;20224;-41
2023/07/10 12:02:48;;;;;;;1.98;0.98;;;;;;;;;;5093616;28;20226;-40
2023/07/10 12:05:19;;;;;;;1.75;1.08;;;;;;;;;;5093576;28;20218;-40
2023/07/10 12:08:01;;;;;;;1.63;1.00;;;;;;;;;;5094447;28;20697;-40
2023/07/10 12:10:36;;;;;;;1.70;1.08;;;;;;;;;;5094095;28;20227;-40
2023/07/10 12:13:20;;;;;;;1.42;0.98;;;;;;;;;;5093790;28;20226;-45
2023/07/10 12:15:48;;;;;;;2.10;0.98;;;;;;;;;;5093951;28;20288;-41
2023/07/10 12:18:39;;;;;;;0.80;0.77;;;;;;;;;;5093285;28;20236;-41
2023/07/10 12:21:21;;;;;;;1.40;0.73;;;;;;;;;;5093784;28;20219;-43
2023/07/10 12:24:14;;;;;;;0.70;0.65;;;;;;;;;;5090689;28;20227;-42
2023/07/10 12:26:42;;;;;;;1.10;0.70;;;;;;;;;;5091858;28;20245;-40
2023/07/10 12:29:29;;;;;;;1.13;0.70;;;;;;;;;;5090348;28;20699;-41
2023/07/10 12:31:56;;;;;;;1.00;0.90;;;;;;;;;;5091642;28;20228;-40
2023/07/10 12:34:30;;;;;;;0.80;0.70;;;;;;;;;;5091437;28;20238;-40
2023/07/10 12:37:00;;;;;;;1.23;0.80;;;;;;;;;;5091953;28;20218;-40
2023/07/10 12:39:29;;;;;;;1.73;1.00;;;;;;;;;;5092346;28;20223;-39
2023/07/10 12:41:58;;;;;;;0.82;0.60;;;;;;;;;;5093466;28;20226;-39
2023/07/10 12:44:27;;;;;;;2.03;0.80;;;;;;;;;;5093246;28;20233;-39
2023/07/10 12:47:06;;;;;;;2.40;0.85;;;;;;;;;;5087398;28;20226;-40
2023/07/10 12:49:34;;;;;;;1.00;0.75;;;;;;;;;;5091730;28;20225;-40
2023/07/10 12:52:06;;;;;;;1.50;0.80;;;;;;;;;;5093210;28;20218;-39
2023/07/10 12:54:42;;;;;;;1.02;0.80;;;;;;;;;;5086161;28;20225;-40
2023/07/10 12:57:23;;;;;;;1.02;0.77;;;;;;;;;;5078934;28;20218;-39
2023/07/10 13:00:05;;;;;;;1.08;0.80;;;;;;;;;;5091900;28;20230;-40
2023/07/10 13:02:44;;;;;;;1.77;0.80;;;;;;;;;;5081016;28;20695;-39
2023/07/10 13:05:21;;;;;;;1.63;1.02;;;;;;;;;;5093156;28;20699;-39
2023/07/10 13:07:53;;;;;;;0.85;0.82;;;;;;;;;;5092737;28;20283;-39
2023/07/10 13:10:25;;;;;;;1.23;0.90;;;;;;;;;;5093105;28;20585;-40
2023/07/10 13:12:54;;;;;;;1.08;0.80;;;;;;;;;;5092664;28;20598;-40
2023/07/10 13:15:30;;;;;;;0.82;0.60;;;;;;;;;;5093156;28;20283;-40
2023/07/10 13:17:59;;;;;;;1.00;0.70;;;;;;;;;;5085110;28;20265;-43
2023/07/10 13:20:28;;;;;;;1.00;0.70;;;;;;;;;;5084127;28;20222;-42
2023/07/10 13:22:58;;;;;;;1.10;0.80;;;;;;;;;;5092444;28;20230;-42
2023/07/10 13:25:30;;;;;;;1.10;0.80;;;;;;;;;;5088295;28;20242;-41
2023/07/10 13:27:57;;;;;;;0.93;0.70;;;;;;;;;;5092399;28;20238;-42
2023/07/10 13:30:25;;;;;;;0.60;0.60;;;;;;;;;;5092940;28;20245;-43
2023/07/10 13:32:52;;;;;;;1.27;0.70;;;;;;;;;;5091793;28;20577;-43
2023/07/10 13:35:19;;;;;;;0.80;0.60;;;;;;;;;;5093212;28;20263;-42
2023/07/10 13:37:46;;;;;;;1.13;0.80;;;;;;;;;;5092163;28;20230;-40
2023/07/10 13:40:21;;;;;;;0.90;0.80;;;;;;;;;;5092752;28;20218;-39
2023/07/10 13:42:49;;;;;;;1.00;0.68;;;;;;;;;;5092638;28;20218;-39
2023/07/10 13:45:16;;;;;;;1.00;0.68;;;;;;;;;;5089594;28;20215;-39
2023/07/10 13:47:43;;;;;;;1.65;0.80;;;;;;;;;;5089167;28;20259;-39
2023/07/10 13:50:15;;;;;;;0.70;0.52;;;;;;;;;;5091989;28;20214;-39
2023/07/10 13:52:43;;;;;;;0.77;0.60;;;;;;;;;;5086530;28;20675;-39
2023/07/10 13:55:14;;;;;;;1.85;0.63;;;;;;;;;;5091991;28;20213;-40
2023/07/10 13:57:43;;;;;;;0.88;0.75;;;;;;;;;;5091730;28;20261;-39
2023/07/10 14:00:13;;;;;;;1.00;0.60;;;;;;;;;;5091978;28;20545;-39
2023/07/10 14:02:43;;;;;;;0.88;0.60;;;;;;;;;;5091800;28;20219;-40
2023/07/10 14:05:12;;;;;;;0.80;0.60;;;;;;;;;;5092295;28;20300;-39
2023/07/10 14:07:40;;;;;;;1.65;0.60;;;;;;;;;;5086725;28;20223;-40
2023/07/10 14:10:13;;;;;;;1.00;0.70;;;;;;;;;;5072242;28;20231;-40
2023/07/10 14:12:40;;;;;;;0.98;0.80;;;;;;;;;;5071888;28;20769;-40
2023/07/10 14:15:14;;;;;;;1.35;0.73;;;;;;;;;;5071915;28;20726;-40
2023/07/10 14:17:42;;;;;;;0.90;0.55;;;;;;;;;;5071570;28;20289;-39
2023/07/10 14:20:20;;;;;;;0.82;0.73;;;;;;;;;;5071955;28;20219;-41
2023/07/10 14:22:47;;;;;;;0.70;0.60;;;;;;;;;;5071669;28;20227;-39
2023/07/10 14:25:17;;;;;;;0.90;0.70;;;;;;;;;;5073386;28;20214;-39
2023/07/10 14:27:45;;;;;;;0.80;0.60;;;;;;;;;;5091989;28;20284;-39
2023/07/10 14:30:20;;;;;;;1.00;0.80;;;;;;;;;;5089861;28;20222;-41
2023/07/10 14:32:47;;;;;;;0.57;0.52;;;;;;;;;;5092107;28;20222;-40
2023/07/10 14:35:20;;;;;;;1.02;0.65;;;;;;;;;;5091961;28;20699;-39
2023/07/10 14:37:48;;;;;;;0.93;0.80;;;;;;;;;;5113173;28;20241;-39
2023/07/10 14:40:17;;;;;;;0.57;0.52;;;;;;;;;;5116043;27;20266;-40
2023/07/10 14:42:44;;;;;;;1.63;0.57;;;;;;;;;;5112379;28;20213;-39
2023/07/10 14:45:15;;;;;;;2.05;0.82;;;;;;;;;;5096044;28;20202;-39
2023/07/10 14:47:44;;;;;;;1.00;0.70;;;;;;;;;;5096617;28;20191;-39
2023/07/10 14:50:12;;;;;;;1.00;0.77;;;;;;;;;;5096299;28;20596;-40
2023/07/10 14:52:41;;;;;;;1.20;0.80;;;;;;;;;;5096209;28;20209;-39
2023/07/10 14:55:15;;;;;;;2.97;0.73;;;;;;;;;;5096184;28;20207;-40
2023/07/10 14:57:42;;;;;;;1.13;0.60;;;;;;;;;;5096054;28;20203;-42
2023/07/10 15:00:23;;;;;;;0.90;0.60;;;;;;;;;;5090920;28;20211;-39
2023/07/10 15:02:52;;;;;;;0.80;0.70;;;;;;;;;;5075776;28;20199;-39
2023/07/10 15:05:20;;;;;;;1.08;0.70;;;;;;;;;;5075689;28;20226;-40
2023/07/10 15:07:47;;;;;;;1.05;0.68;;;;;;;;;;5075946;28;20203;-39
2023/07/10 15:10:21;;;;;;;1.02;0.60;;;;;;;;;;5088158;28;20658;-39
2023/07/10 15:12:55;;;;;;;0.98;0.70;;;;;;;;;;5095853;28;20198;-40